Time;durP1;ratioP1;P1;durP2;ratioP2;P2;SDS_P1;SDS_P2;PMS_P1;PMS_P2;Temp;Humidity;BMP_temperature;BMP_pressure;BME280_temperature;BME280_humidity;BME280_pressure;Samples;Min_cycle;Max_cycle;Signal;HPM_P1;HPM_P2
2022/05/18 00:02:39;;;;;;;1.10;0.90;;;16.40;77.30;;;;;;12661763;23;20234;-82
2022/05/18 00:07:41;;;;;;;0.88;0.80;;;16.50;76.40;;;;;;12671935;23;20858;-82
2022/05/18 00:12:48;;;;;;;2.88;1.15;;;16.70;75.90;;;;;;12671363;23;20560;-82
2022/05/18 00:17:51;;;;;;;1.30;0.90;;;16.40;76.10;;;;;;12687258;23;20216;-82
2022/05/18 00:22:59;;;;;;;1.30;0.70;;;15.30;66.60;;;;;;12671424;23;20684;-82
2022/05/18 00:28:02;;;;;;;0.77;0.60;;;15.00;75.60;;;;;;12670416;23;20185;-82
2022/05/18 00:33:10;;;;;;;1.13;0.63;;;14.80;79.10;;;;;;12644593;23;20243;-82
2022/05/18 00:38:12;;;;;;;1.52;0.60;;;14.90;83.40;;;;;;12667835;23;20264;-82
2022/05/18 00:43:37;;;;;;;0.90;0.70;;;15.30;78.80;;;;;;12671460;23;20169;-82
2022/05/18 00:48:41;;;;;;;3.47;1.00;;;15.00;76.30;;;;;;12626822;23;20201;-82
2022/05/18 00:54:08;;;;;;;2.50;1.35;;;14.30;77.30;;;;;;12671317;23;20714;-83
2022/05/18 00:59:17;;;;;;;1.80;0.52;;;14.10;86.80;;;;;;12643668;23;20278;-82
2022/05/18 01:04:20;;;;;;;1.02;0.82;;;14.40;85.10;;;;;;12680718;23;20177;-82
2022/05/18 01:09:34;;;;;;;1.87;0.80;;;15.40;83.10;;;;;;12671318;23;20166;-82
2022/05/18 01:14:45;;;;;;;2.87;1.10;;;15.80;80.50;;;;;;12689171;23;20193;-82
2022/05/18 01:19:50;;;;;;;0.93;0.60;;;15.60;80.10;;;;;;12652565;23;20177;-82
2022/05/18 01:25:08;;;;;;;2.07;1.10;;;15.90;81.10;;;;;;12644212;23;20189;-83
2022/05/18 01:30:11;;;;;;;1.00;0.70;;;16.40;78.90;;;;;;12667994;23;20181;-82
2022/05/18 01:35:16;;;;;;;0.93;0.73;;;16.40;78.20;;;;;;12669339;23;20185;-83
2022/05/18 01:40:57;;;;;;;0.50;0.50;;;16.00;79.30;;;;;;12687547;23;20164;-82
2022/05/18 01:46:03;;;;;;;0.98;0.65;;;15.80;78.50;;;;;;12643246;23;20243;-82
2022/05/18 01:51:06;;;;;;;0.90;0.60;;;15.60;80.70;;;;;;12672169;23;20177;-82
2022/05/18 01:56:09;;;;;;;1.38;1.00;;;15.70;79.90;;;;;;12668114;23;20832;-82
2022/05/18 02:01:12;;;;;;;1.17;0.97;;;15.80;78.00;;;;;;12668135;23;20177;-82
2022/05/18 02:06:14;;;;;;;0.77;0.77;;;15.50;80.50;;;;;;12669704;23;20205;-82
2022/05/18 02:11:20;;;;;;;1.00;0.90;;;15.90;80.00;;;;;;12686548;23;20204;-82
2022/05/18 02:16:22;;;;;;;1.00;0.70;;;16.30;78.50;;;;;;12666029;23;20271;-82
2022/05/18 02:21:25;;;;;;;0.90;0.57;;;16.40;77.30;;;;;;12668853;23;20200;-82
2022/05/18 02:26:28;;;;;;;2.80;0.53;;;16.20;77.80;;;;;;12669079;23;20173;-82
2022/05/18 02:31:31;;;;;;;1.25;0.73;;;16.40;77.60;;;;;;12669253;23;20503;-82
2022/05/18 02:36:34;;;;;;;0.77;0.50;;;16.80;76.60;;;;;;12670503;23;20189;-82
2022/05/18 02:41:36;;;;;;;1.05;0.63;;;16.90;76.10;;;;;;12673090;23;20267;-82
2022/05/18 02:46:39;;;;;;;2.85;0.70;;;17.00;75.50;;;;;;12688993;23;20248;-82
2022/05/18 02:51:41;;;;;;;0.90;0.80;;;17.00;75.50;;;;;;12673261;23;20228;-82
2022/05/18 02:56:44;;;;;;;0.80;0.57;;;17.30;74.20;;;;;;12672933;23;20189;-82
2022/05/18 03:01:47;;;;;;;1.45;0.70;;;17.10;74.40;;;;;;12673334;23;20169;-82
2022/05/18 03:06:50;;;;;;;0.57;0.57;;;17.00;74.70;;;;;;12645141;23;20192;-82
2022/05/18 03:11:53;;;;;;;1.83;1.08;;;16.90;74.60;;;;;;12671082;23;20173;-82
2022/05/18 03:16:56;;;;;;;1.45;0.80;;;16.10;74.50;;;;;;12671929;23;20189;-82
2022/05/18 03:27:19;;;;;;;2.60;0.70;;;16.20;76.70;;;;;;12689307;23;20223;-83
2022/05/18 03:32:22;;;;;;;1.30;0.85;;;16.40;76.50;;;;;;12672489;23;20177;-83
2022/05/18 03:37:24;;;;;;;0.82;0.63;;;16.40;75.40;;;;;;12671681;23;20260;-82
2022/05/18 03:42:27;;;;;;;1.23;0.90;;;16.20;76.80;;;;;;12688503;23;20165;-82
2022/05/18 03:47:30;;;;;;;3.65;1.17;;;16.40;76.00;;;;;;12668355;23;20641;-82
2022/05/18 03:52:32;;;;;;;1.52;0.95;;;16.30;75.70;;;;;;12646490;23;20173;-82
2022/05/18 03:57:34;;;;;;;1.63;0.80;;;16.40;75.70;;;;;;12669829;23;20193;-82
2022/05/18 04:02:37;;;;;;;1.38;0.80;;;16.00;76.20;;;;;;12668206;23;20216;-82
2022/05/18 04:07:39;;;;;;;0.90;0.70;;;16.20;76.50;;;;;;12645565;23;20224;-83
2022/05/18 04:12:43;;;;;;;0.98;0.68;;;16.40;75.50;;;;;;12689520;23;20228;-83
2022/05/18 04:17:48;;;;;;;3.40;0.80;;;16.60;75.10;;;;;;12669828;23;20192;-82
2022/05/18 04:22:52;;;;;;;0.70;0.63;;;16.90;74.10;;;;;;12688272;23;20224;-83
2022/05/18 04:27:55;;;;;;;0.82;0.77;;;16.90;73.90;;;;;;12671546;23;20232;-82
2022/05/18 04:32:58;;;;;;;2.50;1.20;;;16.50;73.10;;;;;;12646382;23;20217;-82
2022/05/18 04:38:01;;;;;;;1.17;0.70;;;16.70;73.90;;;;;;12644648;23;20201;-83
2022/05/18 04:43:04;;;;;;;2.90;0.88;;;16.80;74.10;;;;;;12671631;23;20165;-83
2022/05/18 04:48:06;;;;;;;2.05;1.15;;;16.70;74.20;;;;;;12668192;23;20256;-83
2022/05/18 04:53:09;;;;;;;4.20;1.35;;;16.70;73.60;;;;;;12670653;23;20224;-83
2022/05/18 04:58:12;;;;;;;1.10;0.95;;;16.60;70.70;;;;;;12666375;23;20664;-84
2022/05/18 05:03:14;;;;;;;1.00;0.70;;;17.20;72.80;;;;;;12643790;23;20259;-84
2022/05/18 05:08:17;;;;;;;3.33;1.13;;;17.20;72.60;;;;;;12669074;23;20173;-84
2022/05/18 05:13:20;;;;;;;1.77;1.08;;;16.90;71.80;;;;;;12669696;23;20504;-86
2022/05/18 05:18:22;;;;;;;2.53;1.23;;;16.00;65.90;;;;;;12666982;23;20185;-86
2022/05/18 05:23:29;;;;;;;2.40;1.37;;;16.10;59.40;;;;;;12686936;23;20228;-83
2022/05/18 05:28:32;;;;;;;3.27;1.60;;;16.60;59.30;;;;;;12667942;23;20648;-83
2022/05/18 05:33:35;;;;;;;2.27;1.10;;;16.80;59.50;;;;;;12668592;23;20263;-83
2022/05/18 05:38:38;;;;;;;2.53;0.97;;;16.20;61.40;;;;;;12668738;23;20221;-83
2022/05/18 05:43:41;;;;;;;1.85;1.15;;;16.50;61.30;;;;;;12669062;23;20193;-84
2022/05/18 05:48:47;;;;;;;2.90;1.05;;;16.40;61.80;;;;;;12676728;23;20201;-84
2022/05/18 05:53:51;;;;;;;1.60;0.80;;;16.60;62.20;;;;;;12668955;23;20233;-83
2022/05/18 05:58:54;;;;;;;1.70;1.08;;;16.50;61.90;;;;;;12666572;23;20205;-83
2022/05/18 06:03:56;;;;;;;2.85;1.20;;;16.80;61.30;;;;;;12669400;23;20553;-83
2022/05/18 06:08:59;;;;;;;1.23;0.90;;;16.80;58.00;;;;;;12683617;23;20169;-83
2022/05/18 06:14:01;;;;;;;3.87;1.23;;;17.30;61.90;;;;;;12669799;23;20169;-83
2022/05/18 06:19:04;;;;;;;1.60;0.85;;;17.70;61.00;;;;;;12669898;23;20197;-83
2022/05/18 06:24:07;;;;;;;1.05;0.70;;;17.80;61.00;;;;;;12670196;23;20228;-83
2022/05/18 06:29:09;;;;;;;1.00;0.70;;;18.20;60.30;;;;;;12670393;23;20173;-84
2022/05/18 06:34:12;;;;;;;1.47;1.03;;;18.00;58.90;;;;;;12682520;23;20203;-83
2022/05/18 06:39:18;;;;;;;1.92;0.85;;;18.50;59.30;;;;;;12670338;23;20275;-83
2022/05/18 06:44:20;;;;;;;2.35;1.13;;;18.70;59.60;;;;;;12669498;23;20275;-83
2022/05/18 06:49:23;;;;;;;2.25;0.90;;;18.30;54.80;;;;;;12669070;23;20205;-83
2022/05/18 06:54:25;;;;;;;1.92;1.10;;;18.50;59.90;;;;;;12666837;23;20517;-83
2022/05/18 06:59:48;;;;;;;1.48;0.63;;;17.80;53.50;;;;;;12685440;23;20192;-83
2022/05/18 07:04:50;;;;;;;1.70;1.00;;;17.90;59.80;;;;;;12668440;23;20560;-83
2022/05/18 07:09:53;;;;;;;1.30;0.85;;;17.80;61.50;;;;;;12668418;23;20224;-83
2022/05/18 07:14:55;;;;;;;0.98;0.70;;;18.30;59.50;;;;;;12669431;23;20165;-83
2022/05/18 07:19:58;;;;;;;1.30;0.80;;;18.50;60.70;;;;;;12669461;23;20228;-83
2022/05/18 07:25:00;;;;;;;1.17;0.75;;;18.80;57.80;;;;;;12672916;23;20177;-83
2022/05/18 07:30:04;;;;;;;2.78;0.77;;;19.00;59.80;;;;;;12689350;23;20173;-82
2022/05/18 07:35:07;;;;;;;2.17;0.80;;;19.00;59.60;;;;;;12670236;23;20722;-82
2022/05/18 07:40:10;;;;;;;0.98;0.88;;;18.90;56.80;;;;;;12663959;23;20558;-82
2022/05/18 07:45:13;;;;;;;2.95;1.02;;;18.50;53.70;;;;;;12666000;23;20185;-82
2022/05/18 07:50:16;;;;;;;0.93;0.75;;;18.30;58.70;;;;;;12667986;23;20197;-81
2022/05/18 07:55:19;;;;;;;3.65;1.02;;;18.80;60.00;;;;;;12668151;23;20185;-91
2022/05/18 08:00:24;;;;;;;2.25;1.20;;;18.00;53.70;;;;;;12645448;23;20580;-91
2022/05/18 08:05:30;;;;;;;6.10;1.33;;;18.90;55.10;;;;;;12654351;23;20213;-92
2022/05/18 08:15:53;;;;;;;13.13;3.20;;;19.30;51.20;;;;;;12640716;23;20200;-84
2022/05/18 08:20:56;;;;;;;10.18;2.60;;;19.40;50.00;;;;;;12668591;23;20197;-84
2022/05/18 08:25:59;;;;;;;6.63;1.80;;;19.80;50.20;;;;;;12641477;23;20528;-84
2022/05/18 08:31:01;;;;;;;19.10;2.35;;;18.90;48.50;;;;;;12666917;23;20173;-84
2022/05/18 08:36:07;;;;;;;23.52;1.98;;;19.40;51.50;;;;;;12666863;23;20500;-84
2022/05/18 08:41:21;;;;;;;1.63;1.05;;;20.00;51.50;;;;;;12667509;23;20173;-84
2022/05/18 08:47:05;;;;;;;11.35;1.58;;;20.00;49.40;;;;;;12665054;23;20212;-84
2022/05/18 08:52:13;;;;;;;9.35;1.65;;;20.30;51.40;;;;;;12624135;23;20188;-84
2022/05/18 08:57:21;;;;;;;6.18;1.33;;;20.40;50.80;;;;;;12640917;23;20637;-84
2022/05/18 09:02:28;;;;;;;3.22;1.00;;;20.60;52.10;;;;;;12668574;23;20169;-85
2022/05/18 09:07:38;;;;;;;6.47;1.40;;;20.30;46.30;;;;;;12682912;23;20790;-84
2022/05/18 09:12:43;;;;;;;6.30;1.20;;;19.90;53.40;;;;;;12684119;23;20624;-85
2022/05/18 09:18:04;;;;;;;3.25;1.00;;;20.30;51.20;;;;;;12600322;23;20224;-78
2022/05/18 09:23:25;;;;;;;4.13;1.48;;;19.50;43.50;;;;;;12622949;23;20173;-78
2022/05/18 09:28:51;;;;;;;4.05;1.15;;;19.70;53.30;;;;;;12623481;23;20174;-79
2022/05/18 09:34:12;;;;;;;2.45;1.17;;;20.00;49.50;;;;;;12619972;23;20233;-79
2022/05/18 09:39:19;;;;;;;3.20;1.33;;;19.80;43.90;;;;;;12622452;23;20230;-78
2022/05/18 09:44:36;;;;;;;6.97;1.10;;;20.10;53.90;;;;;;12603667;23;20529;-79
2022/05/18 09:49:44;;;;;;;6.13;1.27;;;20.30;53.60;;;;;;12615631;23;20177;-79
2022/05/18 09:54:47;;;;;;;5.57;1.55;;;19.40;44.90;;;;;;12605046;23;20537;-79
2022/05/18 09:59:56;;;;;;;3.97;1.58;;;20.00;54.90;;;;;;12603288;23;20689;-79
2022/05/18 10:10:31;;;;;;;11.80;1.00;;;20.10;49.80;;;;;;12623352;23;20173;-79
2022/05/18 10:15:37;;;;;;;3.08;0.88;;;20.40;54.50;;;;;;12659571;23;20256;-78
2022/05/18 10:20:41;;;;;;;8.93;1.65;;;20.60;54.60;;;;;;12673395;23;20169;-79
2022/05/18 10:25:50;;;;;;;1.50;0.90;;;20.50;47.40;;;;;;12665440;23;20267;-80
2022/05/18 10:31:04;;;;;;;1.75;0.85;;;20.20;53.60;;;;;;12666037;23;20776;-79
2022/05/18 10:36:15;;;;;;;1.52;0.75;;;20.40;49.50;;;;;;12670165;23;20181;-79
2022/05/18 10:41:26;;;;;;;7.65;1.10;;;20.60;54.30;;;;;;12663746;23;20619;-79
2022/05/18 10:46:36;;;;;;;4.32;0.77;;;20.40;52.50;;;;;;12682298;23;20169;-79
2022/05/18 10:51:39;;;;;;;3.08;0.90;;;19.00;39.40;;;;;;12668257;23;20240;-80
2022/05/18 10:56:43;;;;;;;24.25;2.60;;;18.30;42.70;;;;;;12668303;23;20189;-78
2022/05/18 11:02:04;;;;;;;2.47;0.93;;;19.00;55.80;;;;;;12670850;23;20169;-78
2022/05/18 11:07:07;;;;;;;6.30;1.40;;;17.40;41.70;;;;;;12670628;23;20173;-79
2022/05/18 11:12:32;;;;;;;5.57;1.53;;;18.70;45.50;;;;;;12643525;23;20235;-78
2022/05/18 11:17:57;;;;;;;4.30;0.97;;;18.50;40.10;;;;;;12670744;23;20200;-79
2022/05/18 11:23:14;;;;;;;5.77;1.30;;;17.80;38.60;;;;;;12642849;23;20220;-79
2022/05/18 11:28:22;;;;;;;12.63;1.80;;;19.00;48.10;;;;;;12660690;23;20172;-80
2022/05/18 11:33:54;;;;;;;10.98;1.77;;;19.30;53.10;;;;;;12670106;23;20241;-80
2022/05/18 11:39:02;;;;;;;3.97;0.65;;;19.70;45.60;;;;;;12668871;23;20723;-80
2022/05/18 11:44:29;;;;;;;9.10;2.00;;;19.60;39.00;;;;;;12668276;23;20524;-80
2022/05/18 11:49:41;;;;;;;12.57;2.03;;;19.90;43.90;;;;;;12672936;23;20247;-80
2022/05/18 11:55:09;;;;;;;11.43;2.58;;;19.90;42.80;;;;;;12687905;23;20524;-79
2022/05/18 12:00:46;;;;;;;17.58;2.83;;;20.10;50.90;;;;;;12689506;23;20228;-80
2022/05/18 12:06:20;;;;;;;6.88;1.98;;;20.10;45.20;;;;;;12676039;23;20169;-80
2022/05/18 12:11:28;;;;;;;33.38;3.58;;;20.00;46.00;;;;;;12669794;23;20237;-80
2022/05/18 12:16:39;;;;;;;13.23;1.50;;;20.40;49.60;;;;;;12645084;23;20296;-79
2022/05/18 12:21:46;;;;;;;13.35;1.58;;;20.90;44.80;;;;;;12634084;23;20224;-79
2022/05/18 12:26:50;;;;;;;10.82;1.52;;;21.40;44.90;;;;;;12683093;23;20169;-79
2022/05/18 12:31:56;;;;;;;24.00;2.15;;;21.50;43.10;;;;;;12667377;23;20185;-79
2022/05/18 12:37:14;;;;;;;2.67;1.05;;;21.50;46.80;;;;;;12665247;23;20256;-78
2022/05/18 12:42:27;;;;;;;4.35;1.42;;;21.60;46.70;;;;;;12642444;23;20204;-79
2022/05/18 12:47:38;;;;;;;4.07;1.20;;;21.70;47.10;;;;;;12641644;23;20181;-80
2022/05/18 12:52:57;;;;;;;9.63;1.25;;;21.70;43.70;;;;;;12685679;23;20173;-79
2022/05/18 12:58:04;;;;;;;3.22;1.10;;;21.20;47.90;;;;;;12684083;23;20244;-78
2022/05/18 13:03:10;;;;;;;5.15;1.25;;;21.70;44.70;;;;;;12665019;23;20173;-79
2022/05/18 13:08:15;;;;;;;9.70;1.13;;;21.70;48.10;;;;;;12684234;23;20224;-79
2022/05/18 13:13:23;;;;;;;4.50;1.08;;;22.20;48.90;;;;;;12665276;23;20212;-79
2022/05/18 13:18:33;;;;;;;6.75;1.88;;;22.30;48.80;;;;;;12641657;23;20532;-78
2022/05/18 13:23:50;;;;;;;3.33;0.90;;;22.50;47.70;;;;;;12682298;23;20193;-79
2022/05/18 13:28:55;;;;;;;4.65;1.20;;;22.30;45.40;;;;;;12661586;23;20192;-78
2022/05/18 13:34:14;;;;;;;1.08;0.68;;;22.30;49.30;;;;;;12668014;23;20224;-79
2022/05/18 13:39:21;;;;;;;3.70;0.77;;;21.80;34.80;;;;;;12686661;23;20193;-79
2022/05/18 13:44:25;;;;;;;3.65;0.63;;;22.00;45.40;;;;;;12643663;23;20181;-79
2022/05/18 13:49:34;;;;;;;6.30;1.10;;;21.90;43.80;;;;;;12643582;23;20212;-79
2022/05/18 13:54:40;;;;;;;8.27;1.60;;;21.70;36.60;;;;;;12670567;23;20497;-79
2022/05/18 13:59:52;;;;;;;2.58;0.90;;;21.70;43.40;;;;;;12686722;23;20188;-79
2022/05/18 14:04:58;;;;;;;1.10;0.85;;;21.60;41.90;;;;;;12679010;23;20172;-78
2022/05/18 14:10:05;;;;;;;14.80;2.67;;;21.10;34.80;;;;;;12685047;23;20173;-78
2022/05/18 14:15:23;;;;;;;10.60;1.63;;;21.90;43.50;;;;;;12656370;23;20201;-78
2022/05/18 14:20:37;;;;;;;9.32;1.58;;;22.70;43.80;;;;;;12667187;23;20189;-78
2022/05/18 14:26:04;;;;;;;3.97;1.23;;;23.00;44.10;;;;;;12642233;23;20702;-79
2022/05/18 14:31:07;;;;;;;7.90;0.73;;;23.50;44.30;;;;;;12687067;23;20173;-80
2022/05/18 14:36:38;;;;;;;8.05;1.08;;;23.70;44.40;;;;;;12646432;23;20252;-79
2022/05/18 14:41:45;;;;;;;3.70;0.95;;;23.70;44.80;;;;;;12672677;23;20169;-78
2022/05/18 14:46:48;;;;;;;4.00;0.70;;;23.80;45.10;;;;;;12690930;23;20220;-78
2022/05/18 14:52:00;;;;;;;1.35;0.90;;;23.80;34.30;;;;;;12647200;23;20181;-78
2022/05/18 14:57:18;;;;;;;3.88;0.93;;;21.30;35.20;;;;;;12664197;23;20181;-78
2022/05/18 15:02:22;;;;;;;6.43;0.82;;;21.70;34.30;;;;;;12688827;23;20556;-78
2022/05/18 15:07:29;;;;;;;1.25;0.80;;;21.60;45.30;;;;;;12672780;23;20173;-78
2022/05/18 15:12:39;;;;;;;2.97;0.88;;;21.10;35.40;;;;;;12689541;23;20499;-78
2022/05/18 15:17:43;;;;;;;1.00;0.68;;;21.40;50.70;;;;;;12674172;23;20251;-78
2022/05/18 15:22:57;;;;;;;3.00;0.63;;;21.70;46.70;;;;;;12672387;23;20520;-78
2022/05/18 15:28:26;;;;;;;3.15;1.00;;;21.30;36.00;;;;;;12689690;23;20173;-78
2022/05/18 15:33:43;;;;;;;1.58;0.77;;;20.90;35.80;;;;;;12688144;23;20562;-79
2022/05/18 15:38:49;;;;;;;5.70;1.35;;;21.60;49.20;;;;;;12688744;23;20188;-78
2022/05/18 15:43:52;;;;;;;16.25;1.75;;;23.00;53.80;;;;;;12690650;23;20501;-79
2022/05/18 15:48:56;;;;;;;11.43;1.40;;;23.20;43.10;;;;;;12671683;23;20676;-79
2022/05/18 15:54:01;;;;;;;3.00;1.17;;;22.40;48.40;;;;;;12672155;23;20200;-79
2022/05/18 15:59:03;;;;;;;4.32;0.93;;;23.00;53.80;;;;;;12672381;23;20571;-79
2022/05/18 16:04:06;;;;;;;3.58;1.15;;;22.60;49.10;;;;;;12643647;23;20181;-80
2022/05/18 16:09:09;;;;;;;4.50;1.10;;;23.00;46.30;;;;;;12641435;23;20177;-81
2022/05/18 16:14:11;;;;;;;5.05;1.15;;;23.20;54.30;;;;;;12666747;23;20197;-80
2022/05/18 16:19:14;;;;;;;2.67;1.30;;;23.20;55.60;;;;;;12667431;23;20528;-81
2022/05/18 16:24:23;;;;;;;5.25;1.40;;;23.60;55.00;;;;;;12641525;23;20565;-81
2022/05/18 16:29:28;;;;;;;3.92;1.55;;;23.60;56.00;;;;;;12684675;23;20173;-78
2022/05/18 16:34:30;;;;;;;3.08;1.10;;;24.00;56.00;;;;;;12667440;23;21014;-78
2022/05/18 16:39:33;;;;;;;3.33;1.30;;;23.70;52.80;;;;;;12667841;23;20192;-78
2022/05/18 16:44:36;;;;;;;3.38;1.17;;;23.80;56.00;;;;;;12641589;23;20181;-78
2022/05/18 16:49:38;;;;;;;5.85;1.27;;;23.90;55.80;;;;;;12641859;23;20185;-78
2022/05/18 16:54:44;;;;;;;2.88;1.00;;;24.00;55.50;;;;;;12667781;23;20173;-77
2022/05/18 16:59:47;;;;;;;16.77;1.90;;;23.70;55.10;;;;;;12679563;23;20213;-78
2022/05/18 17:10:11;;;;;;;2.78;0.95;;;23.60;53.80;;;;;;12643020;23;20208;-78
2022/05/18 17:15:15;;;;;;;4.75;1.13;;;23.60;55.10;;;;;;12669227;23;20220;-77
2022/05/18 17:26:47;;;;;;;3.33;0.80;;;23.30;55.20;;;;;;12315105;24;20225;-77
2022/05/18 17:31:50;;;;;;;5.15;0.95;;;22.40;36.40;;;;;;12351739;24;20173;-77
2022/05/18 17:36:53;;;;;;;1.95;0.85;;;20.90;37.30;;;;;;12336679;23;20185;-77
2022/05/18 17:41:56;;;;;;;3.47;0.90;;;19.60;37.30;;;;;;12314077;24;20189;-77
2022/05/18 17:46:58;;;;;;;36.95;3.65;;;20.10;57.00;;;;;;12315842;24;20181;-77
2022/05/18 17:52:07;;;;;;;12.60;2.10;;;20.80;42.50;;;;;;12316837;24;20202;-77
2022/05/18 17:57:10;;;;;;;7.85;2.15;;;21.10;40.70;;;;;;12336901;24;20181;-77
2022/05/18 18:02:18;;;;;;;7.97;2.17;;;20.80;41.60;;;;;;12315244;24;20190;-77
2022/05/18 18:07:25;;;;;;;4.80;1.23;;;20.40;43.00;;;;;;12332823;24;20174;-77
2022/05/18 18:12:30;;;;;;;5.43;1.15;;;20.10;43.90;;;;;;12316576;24;20169;-77
2022/05/18 18:17:34;;;;;;;4.90;0.77;;;19.80;45.40;;;;;;12314762;24;20249;-77
2022/05/18 18:22:41;;;;;;;6.30;1.10;;;19.30;46.00;;;;;;12315548;24;20192;-77
2022/05/18 18:27:44;;;;;;;5.70;0.95;;;19.00;47.30;;;;;;12315485;24;20489;-77
2022/05/18 18:32:47;;;;;;;3.55;0.98;;;18.70;46.60;;;;;;12337255;24;20173;-77
2022/05/18 18:37:50;;;;;;;10.30;1.08;;;18.30;49.70;;;;;;12315385;24;20318;-78
2022/05/18 18:42:53;;;;;;;5.00;1.42;;;17.80;50.10;;;;;;12353315;24;20177;-77
2022/05/18 18:47:56;;;;;;;3.83;1.13;;;17.30;52.90;;;;;;12336458;24;20241;-77
2022/05/18 18:58:21;;;;;;;11.23;2.28;;;17.10;48.00;;;;;;12314823;24;20529;-78
2022/05/18 19:03:24;;;;;;;10.90;2.10;;;17.80;50.40;;;;;;12288157;24;20185;-77
2022/05/18 19:08:28;;;;;;;5.82;1.40;;;18.20;49.20;;;;;;12326960;24;20180;-78
2022/05/18 19:13:31;;;;;;;21.98;3.20;;;16.70;53.10;;;;;;12313533;24;20210;-77
2022/05/18 19:18:34;;;;;;;6.85;1.70;;;16.00;54.00;;;;;;12313950;24;20201;-78
2022/05/18 19:23:37;;;;;;;5.45;1.25;;;15.90;56.40;;;;;;12315334;24;20569;-77
2022/05/18 19:28:41;;;;;;;6.68;1.70;;;16.70;56.30;;;;;;12317669;24;20571;-77
2022/05/18 19:33:44;;;;;;;11.38;1.88;;;17.30;55.60;;;;;;12317497;24;20225;-77
2022/05/18 19:38:47;;;;;;;8.15;1.40;;;17.50;55.20;;;;;;12329873;24;20512;-77
2022/05/18 19:43:50;;;;;;;10.90;2.28;;;17.30;56.00;;;;;;12313347;24;20198;-77
2022/05/18 19:48:53;;;;;;;5.45;1.63;;;17.90;55.30;;;;;;12312762;24;20234;-76
2022/05/18 19:53:57;;;;;;;5.20;1.23;;;18.30;54.80;;;;;;12333407;24;20193;-77
2022/05/18 19:59:00;;;;;;;6.60;1.55;;;17.90;56.30;;;;;;12313256;24;20201;-77
2022/05/18 20:04:03;;;;;;;7.80;1.70;;;18.40;55.50;;;;;;12333702;24;20712;-77
2022/05/18 20:09:08;;;;;;;9.82;2.17;;;18.80;55.00;;;;;;12311502;24;20586;-77
2022/05/18 20:14:14;;;;;;;5.00;1.48;;;18.70;54.90;;;;;;12311475;24;20245;-77
2022/05/18 20:19:20;;;;;;;18.00;4.53;;;18.20;55.90;;;;;;12328873;24;20201;-77
2022/05/18 20:24:23;;;;;;;14.93;3.38;;;17.30;54.80;;;;;;12309276;24;20234;-77
2022/05/18 20:29:26;;;;;;;2.83;1.38;;;17.30;57.40;;;;;;12311634;24;20497;-77
2022/05/18 20:34:30;;;;;;;7.18;3.83;;;16.20;60.90;;;;;;12310715;24;20245;-78
2022/05/18 20:39:33;;;;;;;4.68;1.40;;;17.60;55.30;;;;;;12313510;24;20234;-77
2022/05/18 20:44:36;;;;;;;6.22;1.85;;;17.40;58.90;;;;;;12315301;24;20218;-78
2022/05/18 20:49:43;;;;;;;2.38;1.08;;;18.00;57.50;;;;;;12331592;24;20202;-77
2022/05/18 20:54:45;;;;;;;3.17;1.35;;;18.10;58.10;;;;;;12323441;24;20320;-77
2022/05/18 20:59:50;;;;;;;6.20;2.17;;;18.30;57.30;;;;;;12337817;24;20321;-77
2022/05/18 21:04:53;;;;;;;4.22;1.45;;;18.20;57.40;;;;;;12316329;24;20233;-77
2022/05/18 21:09:55;;;;;;;10.10;2.40;;;18.10;58.80;;;;;;12316955;24;20177;-77
2022/05/18 21:14:58;;;;;;;6.55;1.40;;;18.30;57.30;;;;;;12332031;24;20173;-77
2022/05/18 21:20:01;;;;;;;3.67;1.60;;;18.20;58.60;;;;;;12337671;24;20197;-77
2022/05/18 21:25:04;;;;;;;3.90;2.10;;;18.20;58.50;;;;;;12336219;24;20556;-77
2022/05/18 21:30:07;;;;;;;4.57;1.48;;;18.10;58.90;;;;;;12313940;24;20173;-77
2022/05/18 21:35:13;;;;;;;6.95;1.70;;;18.10;58.90;;;;;;12316279;23;20193;-77
2022/05/18 21:40:15;;;;;;;3.15;1.30;;;18.20;59.00;;;;;;12290101;24;20205;-77
2022/05/18 21:45:23;;;;;;;8.43;2.28;;;18.10;59.10;;;;;;12336708;24;20254;-77
2022/05/18 21:50:28;;;;;;;10.15;2.85;;;17.80;60.20;;;;;;12313892;24;20184;-77
2022/05/18 21:55:30;;;;;;;6.15;2.95;;;16.90;61.60;;;;;;12315448;24;20524;-77
2022/05/18 22:00:38;;;;;;;8.05;2.50;;;17.10;61.80;;;;;;12316816;24;20295;-78
2022/05/18 22:05:41;;;;;;;3.65;1.73;;;17.30;61.70;;;;;;12355152;23;20177;-78
2022/05/18 22:10:46;;;;;;;4.45;1.92;;;17.40;61.40;;;;;;12315213;24;20185;-77
2022/05/18 22:15:49;;;;;;;4.47;2.42;;;17.60;60.90;;;;;;12336782;24;20173;-77
2022/05/18 22:20:52;;;;;;;5.47;2.58;;;17.80;60.70;;;;;;12314917;24;20554;-77
2022/05/18 22:25:54;;;;;;;5.13;1.98;;;17.70;60.60;;;;;;12314840;24;20196;-77
2022/05/18 22:30:57;;;;;;;9.82;3.20;;;18.00;60.40;;;;;;12315606;24;20185;-77
2022/05/18 22:35:59;;;;;;;3.90;1.88;;;18.00;58.10;;;;;;12315883;24;20173;-78
2022/05/18 22:41:01;;;;;;;3.03;1.73;;;17.70;60.80;;;;;;12315618;24;20753;-77
2022/05/18 22:46:04;;;;;;;2.65;1.40;;;17.90;61.10;;;;;;12314587;24;20566;-78
2022/05/18 22:51:07;;;;;;;3.25;1.85;;;18.10;60.50;;;;;;12337679;24;20218;-78
2022/05/18 22:56:10;;;;;;;7.35;2.35;;;18.10;60.50;;;;;;12319421;24;20177;-78
2022/05/18 23:01:13;;;;;;;6.00;2.63;;;18.20;60.10;;;;;;12319037;24;20226;-78
2022/05/18 23:06:15;;;;;;;4.00;2.35;;;17.90;60.10;;;;;;12319000;24;20169;-78
2022/05/18 23:11:18;;;;;;;5.45;1.88;;;17.40;61.30;;;;;;12339675;23;20189;-78
2022/05/18 23:16:25;;;;;;;8.77;2.30;;;17.50;61.90;;;;;;12319136;24;20253;-78
2022/05/18 23:21:28;;;;;;;5.18;1.77;;;17.60;61.50;;;;;;12334631;24;20193;-78
2022/05/18 23:26:33;;;;;;;6.82;2.60;;;17.60;61.80;;;;;;12318887;24;20226;-78
2022/05/18 23:31:40;;;;;;;3.40;1.65;;;17.90;60.80;;;;;;12334757;24;20514;-78
2022/05/18 23:36:43;;;;;;;4.18;1.90;;;17.90;61.30;;;;;;12334383;24;20241;-78
2022/05/18 23:41:45;;;;;;;3.85;2.08;;;17.90;61.20;;;;;;12319249;24;20218;-78
2022/05/18 23:46:48;;;;;;;3.97;2.13;;;17.60;61.90;;;;;;12317484;24;20198;-78
2022/05/18 23:51:50;;;;;;;7.32;2.30;;;17.60;61.70;;;;;;12318841;24;20520;-80
2022/05/18 23:57:00;;;;;;;7.05;1.80;;;17.20;62.30;;;;;;12318848;24;20233;-78
